TVF61WP LFRS-LPFR
Flight info
| Callsign | TVF61WP |
|---|---|
| Flight time | 1h 48m |
| Altitude | 35000 |
| Route | DCT ERIGA UZ218 FUJTI DCT BAKUP DCT BATAX DCT ELVAR DCT ALAGU DCT |
| Aircraft | B738/M-SDE2E3FGHIRWXY/LB1 |
Departure
| Time | 2026-04-28 10:55 |
|---|---|
| Airport | Nantes Atlantique Airport (LFRS) |
Arrival
| Time | 2026-04-28 12:43 |
|---|---|
| Airport | Faro - Gago Coutinho International Airport (LPFR) |
| Time | Latitude | Longitude | Altitude | Speed | Heading |
|---|---|---|---|---|---|
| 2026-04-28 10:30 | 47.15680 | -1.60219 | 90 ft | 0 kts | 35° |
| 2026-04-28 10:44 | 47.15667 | -1.60233 | 91 ft | 4 kts | 37° |
| 2026-04-28 10:44 | 47.15646 | -1.60256 | 89 ft | 4 kts | 36° |
| 2026-04-28 10:44 | 47.15628 | -1.60274 | 90 ft | 4 kts | 54° |
| 2026-04-28 10:44 | 47.15626 | -1.60299 | 90 ft | 4 kts | 133° |
| 2026-04-28 10:45 | 47.15643 | -1.60322 | 91 ft | 1 kts | 139° |
| 2026-04-28 10:45 | 47.15644 | -1.60323 | 91 ft | 0 kts | 139° |
| 2026-04-28 10:47 | 47.15643 | -1.60322 | 91 ft | 1 kts | 139° |
| 2026-04-28 10:47 | 47.15626 | -1.60300 | 90 ft | 6 kts | 137° |
| 2026-04-28 10:47 | 47.15588 | -1.60274 | 91 ft | 6 kts | 176° |
| 2026-04-28 10:48 | 47.15547 | -1.60294 | 90 ft | 6 kts | 213° |
| 2026-04-28 10:48 | 47.15522 | -1.60343 | 90 ft | 6 kts | 247° |
| 2026-04-28 10:48 | 47.15522 | -1.60403 | 91 ft | 6 kts | 290° |
| 2026-04-28 10:48 | 47.15545 | -1.60454 | 93 ft | 6 kts | 305° |
| 2026-04-28 10:49 | 47.15570 | -1.60507 | 91 ft | 7 kts | 306° |
| 2026-04-28 10:49 | 47.15587 | -1.60582 | 90 ft | 9 kts | 255° |
| 2026-04-28 10:49 | 47.15537 | -1.60638 | 91 ft | 9 kts | 207° |
| 2026-04-28 10:49 | 47.15478 | -1.60683 | 90 ft | 11 kts | 208° |
| 2026-04-28 10:50 | 47.15405 | -1.60742 | 91 ft | 13 kts | 210° |
| 2026-04-28 10:50 | 47.15353 | -1.60780 | 92 ft | 13 kts | 206° |
| 2026-04-28 10:50 | 47.15227 | -1.60874 | 91 ft | 17 kts | 207° |
| 2026-04-28 10:50 | 47.15118 | -1.60957 | 90 ft | 18 kts | 207° |
| 2026-04-28 10:51 | 47.15011 | -1.61038 | 89 ft | 17 kts | 207° |
| 2026-04-28 10:51 | 47.14910 | -1.61115 | 92 ft | 16 kts | 207° |
| 2026-04-28 10:51 | 47.14812 | -1.61190 | 89 ft | 16 kts | 207° |
| 2026-04-28 10:51 | 47.14717 | -1.61263 | 91 ft | 15 kts | 207° |
| 2026-04-28 10:52 | 47.14626 | -1.61332 | 89 ft | 14 kts | 208° |
| 2026-04-28 10:52 | 47.14537 | -1.61400 | 89 ft | 14 kts | 207° |
| 2026-04-28 10:52 | 47.14451 | -1.61466 | 89 ft | 14 kts | 207° |
| 2026-04-28 10:52 | 47.14349 | -1.61543 | 86 ft | 19 kts | 207° |
| 2026-04-28 10:53 | 47.14230 | -1.61633 | 86 ft | 17 kts | 208° |
| 2026-04-28 10:53 | 47.14166 | -1.61712 | 85 ft | 12 kts | 247° |
| 2026-04-28 10:53 | 47.14140 | -1.61823 | 84 ft | 11 kts | 256° |
| 2026-04-28 10:53 | 47.14168 | -1.61922 | 85 ft | 10 kts | 330° |
| 2026-04-28 10:54 | 47.14239 | -1.61893 | 84 ft | 15 kts | 27° |
| 2026-04-28 10:54 | 47.14524 | -1.61676 | 90 ft | 79 kts | 27° |
| 2026-04-28 10:54 | 47.15194 | -1.61167 | 89 ft | 135 kts | 27° |
| 2026-04-28 10:54 | 47.16097 | -1.60440 | 436 ft | 152 kts | 29° |
| 2026-04-28 10:55 | 47.17034 | -1.59715 | 1109 ft | 156 kts | 17° |
| 2026-04-28 10:55 | 47.18103 | -1.60008 | 1717 ft | 170 kts | 327° |
| 2026-04-28 10:55 | 47.18802 | -1.61582 | 2060 ft | 201 kts | 295° |
| 2026-04-28 10:55 | 47.19294 | -1.63632 | 2394 ft | 224 kts | 294° |
| 2026-04-28 10:56 | 47.19892 | -1.65807 | 2703 ft | 241 kts | 296° |
| 2026-04-28 10:56 | 47.20573 | -1.68114 | 3076 ft | 255 kts | 297° |
| 2026-04-28 10:56 | 47.21317 | -1.70598 | 3489 ft | 272 kts | 297° |
| 2026-04-28 10:56 | 47.22082 | -1.73120 | 4440 ft | 269 kts | 296° |
| 2026-04-28 10:57 | 47.22421 | -1.75869 | 5110 ft | 284 kts | 265° |
| 2026-04-28 10:57 | 47.21745 | -1.78600 | 5913 ft | 286 kts | 244° |
| 2026-04-28 10:57 | 47.20815 | -1.81201 | 6690 ft | 289 kts | 243° |
| 2026-04-28 10:57 | 47.19866 | -1.83822 | 7476 ft | 291 kts | 243° |
| 2026-04-28 10:58 | 47.18924 | -1.86446 | 8403 ft | 288 kts | 244° |
| 2026-04-28 10:58 | 47.18010 | -1.89018 | 9350 ft | 285 kts | 245° |
| 2026-04-28 10:58 | 47.17106 | -1.91584 | 10405 ft | 279 kts | 245° |
| 2026-04-28 10:58 | 47.16202 | -1.94169 | 10909 ft | 294 kts | 245° |
| 2026-04-28 10:59 | 47.15233 | -1.96944 | 11115 ft | 318 kts | 244° |
| 2026-04-28 10:59 | 47.14006 | -1.99769 | 11411 ft | 338 kts | 232° |
| 2026-04-28 10:59 | 47.12377 | -2.02320 | 12064 ft | 345 kts | 228° |
| 2026-04-28 10:59 | 47.10712 | -2.04867 | 12865 ft | 347 kts | 228° |
| 2026-04-28 11:00 | 47.09049 | -2.07465 | 13597 ft | 352 kts | 229° |
| 2026-04-28 11:00 | 47.07384 | -2.10124 | 14333 ft | 355 kts | 230° |
| 2026-04-28 11:00 | 47.05722 | -2.12819 | 15121 ft | 356 kts | 230° |
| 2026-04-28 11:00 | 47.04058 | -2.15539 | 15905 ft | 359 kts | 230° |
| 2026-04-28 11:01 | 47.02409 | -2.18244 | 16648 ft | 362 kts | 231° |
| 2026-04-28 11:01 | 47.00726 | -2.21006 | 17396 ft | 364 kts | 231° |
| 2026-04-28 11:01 | 46.99028 | -2.23789 | 18136 ft | 368 kts | 231° |
| 2026-04-28 11:01 | 46.97315 | -2.26592 | 18803 ft | 370 kts | 231° |
| 2026-04-28 11:02 | 46.95430 | -2.29192 | 19484 ft | 376 kts | 217° |
| 2026-04-28 11:02 | 46.93105 | -2.31007 | 20179 ft | 379 kts | 210° |
| 2026-04-28 11:02 | 46.90729 | -2.32726 | 20826 ft | 381 kts | 211° |
| 2026-04-28 11:02 | 46.89157 | -2.33896 | 21208 ft | 383 kts | 211° |
| 2026-04-28 11:03 | 46.85970 | -2.36314 | 21997 ft | 387 kts | 212° |
| 2026-04-28 11:03 | 46.84412 | -2.37580 | 22392 ft | 387 kts | 214° |
| 2026-04-28 11:03 | 46.82085 | -2.39592 | 22977 ft | 389 kts | 216° |
| 2026-04-28 11:03 | 46.79763 | -2.41659 | 23544 ft | 392 kts | 216° |
| 2026-04-28 11:04 | 46.76674 | -2.44422 | 24189 ft | 395 kts | 216° |
| 2026-04-28 11:04 | 46.75085 | -2.45835 | 24481 ft | 397 kts | 216° |
| 2026-04-28 11:04 | 46.72719 | -2.47929 | 24922 ft | 399 kts | 216° |
| 2026-04-28 11:04 | 46.70365 | -2.49999 | 25387 ft | 401 kts | 215° |
| 2026-04-28 11:05 | 46.67970 | -2.52097 | 25854 ft | 402 kts | 215° |
| 2026-04-28 11:05 | 46.65569 | -2.54194 | 26312 ft | 403 kts | 215° |
| 2026-04-28 11:05 | 46.63152 | -2.56300 | 26737 ft | 405 kts | 215° |
| 2026-04-28 11:05 | 46.60727 | -2.58413 | 27155 ft | 407 kts | 215° |
| 2026-04-28 11:06 | 46.58289 | -2.60533 | 27566 ft | 409 kts | 214° |
| 2026-04-28 11:06 | 46.55836 | -2.62664 | 27962 ft | 411 kts | 214° |
| 2026-04-28 11:06 | 46.53372 | -2.64802 | 28303 ft | 413 kts | 214° |
| 2026-04-28 11:06 | 46.50891 | -2.66955 | 28600 ft | 417 kts | 214° |
| 2026-04-28 11:07 | 46.48432 | -2.69084 | 28974 ft | 418 kts | 214° |
| 2026-04-28 11:07 | 46.45932 | -2.71247 | 29384 ft | 419 kts | 214° |
| 2026-04-28 11:07 | 46.43430 | -2.73409 | 29768 ft | 420 kts | 214° |
| 2026-04-28 11:07 | 46.40912 | -2.75583 | 30115 ft | 421 kts | 214° |
| 2026-04-28 11:08 | 46.38387 | -2.77761 | 30432 ft | 422 kts | 214° |
| 2026-04-28 11:08 | 46.35867 | -2.79932 | 30774 ft | 421 kts | 214° |
| 2026-04-28 11:08 | 46.33338 | -2.82110 | 30983 ft | 424 kts | 214° |
| 2026-04-28 11:08 | 46.30792 | -2.84301 | 31202 ft | 427 kts | 214° |
| 2026-04-28 11:09 | 46.28263 | -2.86472 | 31589 ft | 425 kts | 214° |
| 2026-04-28 11:09 | 46.25720 | -2.88655 | 32009 ft | 423 kts | 215° |
| 2026-04-28 11:09 | 46.23195 | -2.90843 | 32340 ft | 423 kts | 215° |
| 2026-04-28 11:09 | 46.20666 | -2.93046 | 32626 ft | 424 kts | 215° |
| 2026-04-28 11:10 | 46.18140 | -2.95250 | 32956 ft | 424 kts | 216° |
| 2026-04-28 11:10 | 46.15620 | -2.97447 | 33311 ft | 422 kts | 216° |
| 2026-04-28 11:10 | 46.13104 | -2.99637 | 33658 ft | 422 kts | 216° |
| 2026-04-28 11:10 | 46.10597 | -3.01815 | 34049 ft | 419 kts | 216° |
| 2026-04-28 11:11 | 46.08134 | -3.03950 | 34375 ft | 418 kts | 216° |
| 2026-04-28 11:11 | 46.05635 | -3.06115 | 34543 ft | 421 kts | 215° |
| 2026-04-28 11:11 | 46.03121 | -3.08293 | 34692 ft | 423 kts | 215° |
| 2026-04-28 11:11 | 46.00592 | -3.10480 | 34936 ft | 423 kts | 215° |
| 2026-04-28 11:12 | 45.98070 | -3.12657 | 35183 ft | 423 kts | 215° |
| 2026-04-28 11:12 | 45.95538 | -3.14841 | 35367 ft | 425 kts | 215° |
| 2026-04-28 11:12 | 45.92989 | -3.17036 | 35556 ft | 427 kts | 215° |
| 2026-04-28 11:12 | 45.90467 | -3.19207 | 35702 ft | 428 kts | 215° |
| 2026-04-28 11:13 | 45.87912 | -3.21403 | 35956 ft | 428 kts | 214° |
| 2026-04-28 11:13 | 45.85351 | -3.23601 | 36190 ft | 428 kts | 214° |
| 2026-04-28 11:13 | 45.82786 | -3.25801 | 36373 ft | 430 kts | 214° |
| 2026-04-28 11:13 | 45.80210 | -3.28008 | 36575 ft | 431 kts | 214° |
| 2026-04-28 11:14 | 45.77636 | -3.30211 | 36793 ft | 431 kts | 214° |
| 2026-04-28 11:14 | 45.75087 | -3.32389 | 37005 ft | 432 kts | 214° |
| 2026-04-28 11:14 | 45.72500 | -3.34599 | 37161 ft | 433 kts | 214° |
| 2026-04-28 11:14 | 45.69913 | -3.36804 | 37491 ft | 430 kts | 214° |
| 2026-04-28 11:15 | 45.67346 | -3.38991 | 37746 ft | 429 kts | 214° |
| 2026-04-28 11:15 | 45.64768 | -3.41185 | 37871 ft | 432 kts | 214° |
| 2026-04-28 11:15 | 45.62179 | -3.43388 | 38016 ft | 433 kts | 214° |
| 2026-04-28 11:15 | 45.59587 | -3.45590 | 38222 ft | 433 kts | 214° |
| 2026-04-28 11:16 | 45.56993 | -3.47791 | 38413 ft | 434 kts | 214° |
| 2026-04-28 11:16 | 45.54426 | -3.49966 | 38580 ft | 434 kts | 214° |
| 2026-04-28 11:16 | 45.51824 | -3.52170 | 38718 ft | 435 kts | 214° |
| 2026-04-28 11:16 | 45.49219 | -3.54372 | 38907 ft | 434 kts | 214° |
| 2026-04-28 11:17 | 45.46621 | -3.56566 | 39054 ft | 434 kts | 214° |
| 2026-04-28 11:17 | 45.41387 | -3.60981 | 39063 ft | 438 kts | 214° |
| 2026-04-28 11:18 | 45.36146 | -3.65390 | 39053 ft | 436 kts | 214° |
| 2026-04-28 11:18 | 45.30933 | -3.69766 | 39051 ft | 433 kts | 214° |
| 2026-04-28 11:19 | 45.25782 | -3.74082 | 39058 ft | 431 kts | 213° |
| 2026-04-28 11:19 | 45.20609 | -3.78408 | 39057 ft | 430 kts | 213° |
| 2026-04-28 11:20 | 45.15454 | -3.82709 | 39056 ft | 429 kts | 213° |
| 2026-04-28 11:20 | 45.10341 | -3.86967 | 39056 ft | 428 kts | 213° |
| 2026-04-28 11:21 | 45.05193 | -3.91244 | 39055 ft | 429 kts | 213° |
| 2026-04-28 11:21 | 45.00035 | -3.95521 | 39047 ft | 429 kts | 213° |
| 2026-04-28 11:22 | 44.94874 | -3.99791 | 39053 ft | 430 kts | 213° |
| 2026-04-28 11:22 | 44.89744 | -4.04027 | 39053 ft | 430 kts | 213° |
| 2026-04-28 11:23 | 44.84570 | -4.08290 | 39042 ft | 430 kts | 213° |
| 2026-04-28 11:23 | 44.79395 | -4.12544 | 39048 ft | 430 kts | 213° |
| 2026-04-28 11:24 | 44.74226 | -4.16785 | 39050 ft | 429 kts | 213° |
| 2026-04-28 11:24 | 44.69060 | -4.21015 | 39043 ft | 429 kts | 213° |
| 2026-04-28 11:25 | 44.63936 | -4.25201 | 39040 ft | 429 kts | 213° |
| 2026-04-28 11:25 | 44.58780 | -4.29406 | 39038 ft | 428 kts | 213° |
| 2026-04-28 11:26 | 44.53626 | -4.33600 | 39049 ft | 428 kts | 213° |
| 2026-04-28 11:26 | 44.48471 | -4.37787 | 39039 ft | 427 kts | 213° |
| 2026-04-28 11:27 | 44.43332 | -4.41953 | 39038 ft | 426 kts | 213° |
| 2026-04-28 11:27 | 44.38247 | -4.46126 | 39035 ft | 425 kts | 213° |
| 2026-04-28 11:28 | 44.33197 | -4.50416 | 39031 ft | 424 kts | 214° |
| 2026-04-28 11:28 | 44.28176 | -4.54690 | 39034 ft | 424 kts | 214° |
| 2026-04-28 11:29 | 44.23135 | -4.58959 | 39030 ft | 424 kts | 213° |
| 2026-04-28 11:29 | 44.18083 | -4.63219 | 39037 ft | 424 kts | 213° |
| 2026-04-28 11:30 | 44.13031 | -4.67466 | 39029 ft | 424 kts | 213° |
| 2026-04-28 11:30 | 44.05435 | -4.73835 | 39035 ft | 425 kts | 213° |
| 2026-04-28 11:31 | 44.00359 | -4.78082 | 39035 ft | 426 kts | 213° |
| 2026-04-28 11:31 | 43.95266 | -4.82333 | 39031 ft | 427 kts | 213° |
| 2026-04-28 11:32 | 43.90198 | -4.86555 | 39024 ft | 428 kts | 213° |
| 2026-04-28 11:32 | 43.85086 | -4.90805 | 39035 ft | 428 kts | 213° |
| 2026-04-28 11:33 | 43.79952 | -4.95064 | 39033 ft | 429 kts | 213° |
| 2026-04-28 11:33 | 43.74824 | -4.99311 | 39031 ft | 430 kts | 212° |
| 2026-04-28 11:34 | 43.69716 | -5.03532 | 39026 ft | 430 kts | 212° |
| 2026-04-28 11:34 | 43.64567 | -5.07778 | 39037 ft | 430 kts | 212° |
| 2026-04-28 11:35 | 43.59442 | -5.11996 | 39033 ft | 431 kts | 212° |
| 2026-04-28 11:35 | 43.54276 | -5.16240 | 39033 ft | 431 kts | 212° |
| 2026-04-28 11:36 | 43.49112 | -5.20473 | 39025 ft | 431 kts | 212° |
| 2026-04-28 11:36 | 43.43986 | -5.24666 | 39027 ft | 431 kts | 212° |
| 2026-04-28 11:37 | 43.38825 | -5.28880 | 39028 ft | 431 kts | 212° |
| 2026-04-28 11:37 | 43.33661 | -5.33088 | 39021 ft | 431 kts | 212° |
| 2026-04-28 11:38 | 43.28495 | -5.37289 | 39004 ft | 431 kts | 212° |
| 2026-04-28 11:38 | 43.23357 | -5.41459 | 39012 ft | 431 kts | 212° |
| 2026-04-28 11:39 | 43.18187 | -5.45646 | 39009 ft | 431 kts | 211° |
| 2026-04-28 11:39 | 43.13010 | -5.49832 | 39003 ft | 432 kts | 212° |
| 2026-04-28 11:40 | 43.07822 | -5.54017 | 38997 ft | 432 kts | 211° |
| 2026-04-28 11:40 | 43.02676 | -5.58160 | 38991 ft | 432 kts | 211° |
| 2026-04-28 11:41 | 42.97486 | -5.62331 | 38994 ft | 432 kts | 211° |
| 2026-04-28 11:41 | 42.92288 | -5.66500 | 38982 ft | 432 kts | 211° |
| 2026-04-28 11:42 | 42.87122 | -5.70634 | 38976 ft | 432 kts | 211° |
| 2026-04-28 11:42 | 42.81932 | -5.74780 | 38994 ft | 432 kts | 211° |
| 2026-04-28 11:43 | 42.76742 | -5.78918 | 38986 ft | 433 kts | 211° |
| 2026-04-28 11:43 | 42.71543 | -5.83055 | 38990 ft | 433 kts | 211° |
| 2026-04-28 11:44 | 42.66333 | -5.87192 | 38988 ft | 433 kts | 211° |
| 2026-04-28 11:44 | 42.61111 | -5.91331 | 38987 ft | 434 kts | 211° |
| 2026-04-28 11:45 | 42.55894 | -5.95458 | 38977 ft | 434 kts | 211° |
| 2026-04-28 11:45 | 42.50674 | -5.99579 | 38972 ft | 434 kts | 211° |
| 2026-04-28 11:46 | 42.45480 | -6.03672 | 38963 ft | 435 kts | 211° |
| 2026-04-28 11:46 | 42.40250 | -6.07785 | 38958 ft | 435 kts | 211° |
| 2026-04-28 11:47 | 42.35008 | -6.11900 | 38952 ft | 435 kts | 211° |
| 2026-04-28 11:47 | 42.29768 | -6.16005 | 38951 ft | 435 kts | 211° |
| 2026-04-28 11:48 | 42.24557 | -6.20079 | 38956 ft | 435 kts | 211° |
| 2026-04-28 11:48 | 42.19313 | -6.24171 | 38953 ft | 435 kts | 210° |
| 2026-04-28 11:49 | 42.14065 | -6.28258 | 38952 ft | 435 kts | 210° |
| 2026-04-28 11:49 | 42.08810 | -6.32344 | 38949 ft | 435 kts | 210° |
| 2026-04-28 11:50 | 42.04443 | -6.35732 | 38946 ft | 435 kts | 210° |
| 2026-04-28 11:50 | 41.98342 | -6.40457 | 38940 ft | 435 kts | 210° |
| 2026-04-28 11:51 | 41.93937 | -6.43863 | 38941 ft | 435 kts | 210° |
| 2026-04-28 11:51 | 41.88691 | -6.47911 | 38940 ft | 435 kts | 210° |
| 2026-04-28 11:52 | 41.83478 | -6.51927 | 38928 ft | 435 kts | 210° |
| 2026-04-28 11:52 | 41.78227 | -6.55965 | 38925 ft | 435 kts | 210° |
| 2026-04-28 11:53 | 41.72971 | -6.59999 | 38924 ft | 435 kts | 210° |
| 2026-04-28 11:53 | 41.67565 | -6.63625 | 38925 ft | 435 kts | 201° |
| 2026-04-28 11:54 | 41.61869 | -6.66396 | 38918 ft | 435 kts | 200° |
| 2026-04-28 11:54 | 41.56170 | -6.69117 | 38908 ft | 435 kts | 200° |
| 2026-04-28 11:55 | 41.50467 | -6.71882 | 38914 ft | 435 kts | 200° |
| 2026-04-28 11:55 | 41.44810 | -6.74650 | 38910 ft | 435 kts | 200° |
| 2026-04-28 11:56 | 41.39122 | -6.77439 | 38902 ft | 435 kts | 200° |
| 2026-04-28 11:56 | 41.33436 | -6.80223 | 38905 ft | 435 kts | 200° |
| 2026-04-28 11:57 | 41.27749 | -6.83002 | 38909 ft | 435 kts | 200° |
| 2026-04-28 11:57 | 41.22062 | -6.85774 | 38907 ft | 435 kts | 200° |
| 2026-04-28 11:58 | 41.16373 | -6.88542 | 38904 ft | 435 kts | 200° |
| 2026-04-28 11:58 | 41.10716 | -6.91290 | 38902 ft | 435 kts | 200° |
| 2026-04-28 11:59 | 41.05032 | -6.94045 | 38905 ft | 435 kts | 200° |
| 2026-04-28 11:59 | 40.99337 | -6.96801 | 38902 ft | 435 kts | 200° |
| 2026-04-28 12:00 | 40.93651 | -6.99547 | 38904 ft | 435 kts | 200° |
| 2026-04-28 12:00 | 40.87928 | -7.02016 | 38909 ft | 434 kts | 196° |
| 2026-04-28 12:01 | 40.82077 | -7.04111 | 38911 ft | 435 kts | 195° |
| 2026-04-28 12:01 | 40.76231 | -7.06182 | 38908 ft | 435 kts | 195° |
| 2026-04-28 12:02 | 40.70399 | -7.08294 | 38909 ft | 434 kts | 196° |
| 2026-04-28 12:02 | 40.64568 | -7.10432 | 38910 ft | 434 kts | 196° |
| 2026-04-28 12:03 | 40.58783 | -7.12557 | 38909 ft | 434 kts | 196° |
| 2026-04-28 12:03 | 40.52963 | -7.14692 | 38911 ft | 434 kts | 196° |
| 2026-04-28 12:04 | 40.47138 | -7.16823 | 38907 ft | 434 kts | 196° |
| 2026-04-28 12:04 | 40.41307 | -7.18953 | 38917 ft | 434 kts | 196° |
| 2026-04-28 12:05 | 40.35486 | -7.21074 | 38919 ft | 434 kts | 196° |
| 2026-04-28 12:05 | 40.29696 | -7.23182 | 38920 ft | 435 kts | 196° |
| 2026-04-28 12:06 | 40.23858 | -7.25302 | 38910 ft | 435 kts | 196° |
| 2026-04-28 12:06 | 40.18023 | -7.27418 | 38917 ft | 435 kts | 196° |
| 2026-04-28 12:07 | 40.12180 | -7.29532 | 38911 ft | 435 kts | 196° |
| 2026-04-28 12:07 | 40.06347 | -7.31639 | 38910 ft | 435 kts | 196° |
| 2026-04-28 12:08 | 40.00506 | -7.33746 | 38907 ft | 435 kts | 196° |
| 2026-04-28 12:08 | 39.94694 | -7.35838 | 38908 ft | 435 kts | 196° |
| 2026-04-28 12:09 | 39.88848 | -7.37939 | 38911 ft | 435 kts | 196° |
| 2026-04-28 12:09 | 39.82993 | -7.40039 | 38909 ft | 436 kts | 196° |
| 2026-04-28 12:10 | 39.77138 | -7.42136 | 38904 ft | 436 kts | 196° |
| 2026-04-28 12:10 | 39.71318 | -7.44217 | 38903 ft | 436 kts | 196° |
| 2026-04-28 12:11 | 39.65462 | -7.46306 | 38902 ft | 436 kts | 196° |
| 2026-04-28 12:11 | 39.59608 | -7.48391 | 38905 ft | 436 kts | 196° |
| 2026-04-28 12:12 | 39.53751 | -7.50474 | 38903 ft | 435 kts | 195° |
| 2026-04-28 12:12 | 39.47912 | -7.52547 | 38902 ft | 435 kts | 195° |
| 2026-04-28 12:13 | 39.42075 | -7.54615 | 38902 ft | 434 kts | 195° |
| 2026-04-28 12:13 | 39.36250 | -7.56676 | 38899 ft | 433 kts | 195° |
| 2026-04-28 12:14 | 39.30468 | -7.58718 | 38888 ft | 433 kts | 195° |
| 2026-04-28 12:14 | 39.24661 | -7.60765 | 38899 ft | 433 kts | 195° |
| 2026-04-28 12:15 | 39.18845 | -7.62812 | 38898 ft | 433 kts | 195° |
| 2026-04-28 12:15 | 39.13018 | -7.64859 | 38901 ft | 434 kts | 195° |
| 2026-04-28 12:16 | 39.07180 | -7.66906 | 38898 ft | 435 kts | 195° |
| 2026-04-28 12:16 | 39.01368 | -7.68941 | 38898 ft | 436 kts | 195° |
| 2026-04-28 12:17 | 38.98431 | -7.69968 | 38679 ft | 441 kts | 195° |
| 2026-04-28 12:17 | 38.95454 | -7.71008 | 38108 ft | 443 kts | 195° |
| 2026-04-28 12:17 | 38.92485 | -7.72044 | 37508 ft | 439 kts | 195° |
| 2026-04-28 12:17 | 38.89544 | -7.73069 | 36909 ft | 437 kts | 195° |
| 2026-04-28 12:18 | 38.86615 | -7.74090 | 36290 ft | 435 kts | 195° |
| 2026-04-28 12:18 | 38.83703 | -7.75104 | 35666 ft | 434 kts | 196° |
| 2026-04-28 12:18 | 38.80819 | -7.76107 | 34997 ft | 434 kts | 196° |
| 2026-04-28 12:18 | 38.77904 | -7.77120 | 34328 ft | 434 kts | 196° |
| 2026-04-28 12:19 | 38.74989 | -7.78133 | 33593 ft | 434 kts | 196° |
| 2026-04-28 12:19 | 38.72069 | -7.79146 | 32816 ft | 434 kts | 196° |
| 2026-04-28 12:19 | 38.69158 | -7.80155 | 32185 ft | 431 kts | 196° |
| 2026-04-28 12:19 | 38.66283 | -7.81151 | 31663 ft | 426 kts | 196° |
| 2026-04-28 12:20 | 38.63438 | -7.82135 | 31148 ft | 421 kts | 196° |
| 2026-04-28 12:20 | 38.60618 | -7.83110 | 30626 ft | 417 kts | 196° |
| 2026-04-28 12:20 | 38.57826 | -7.84075 | 30137 ft | 413 kts | 196° |
| 2026-04-28 12:20 | 38.55064 | -7.85028 | 29589 ft | 409 kts | 196° |
| 2026-04-28 12:21 | 38.52358 | -7.85962 | 29071 ft | 404 kts | 196° |
| 2026-04-28 12:21 | 38.49659 | -7.86892 | 28561 ft | 399 kts | 196° |
| 2026-04-28 12:21 | 38.46991 | -7.87811 | 28067 ft | 395 kts | 195° |
| 2026-04-28 12:21 | 38.44353 | -7.88719 | 27550 ft | 391 kts | 195° |
| 2026-04-28 12:22 | 38.41716 | -7.89573 | 26827 ft | 393 kts | 193° |
| 2026-04-28 12:22 | 38.39057 | -7.90327 | 26312 ft | 390 kts | 193° |
| 2026-04-28 12:22 | 38.36409 | -7.91042 | 25777 ft | 388 kts | 192° |
| 2026-04-28 12:22 | 38.33776 | -7.91748 | 25275 ft | 385 kts | 192° |
| 2026-04-28 12:23 | 38.31163 | -7.92454 | 24777 ft | 382 kts | 192° |
| 2026-04-28 12:23 | 38.28570 | -7.93162 | 24298 ft | 380 kts | 192° |
| 2026-04-28 12:23 | 38.25986 | -7.93874 | 23806 ft | 378 kts | 192° |
| 2026-04-28 12:23 | 38.23423 | -7.94585 | 23286 ft | 376 kts | 192° |
| 2026-04-28 12:24 | 38.20872 | -7.95294 | 22741 ft | 374 kts | 192° |
| 2026-04-28 12:24 | 38.18373 | -7.95990 | 22236 ft | 371 kts | 192° |
| 2026-04-28 12:24 | 38.15865 | -7.96688 | 21767 ft | 367 kts | 192° |
| 2026-04-28 12:24 | 38.13379 | -7.97380 | 21282 ft | 364 kts | 192° |
| 2026-04-28 12:25 | 38.10913 | -7.98067 | 20813 ft | 361 kts | 192° |
| 2026-04-28 12:25 | 38.08472 | -7.98746 | 20348 ft | 358 kts | 192° |
| 2026-04-28 12:25 | 38.06048 | -7.99420 | 19890 ft | 355 kts | 192° |
| 2026-04-28 12:25 | 38.03641 | -8.00089 | 19433 ft | 353 kts | 192° |
| 2026-04-28 12:26 | 38.01248 | -8.00753 | 18987 ft | 351 kts | 192° |
| 2026-04-28 12:26 | 37.98866 | -8.01414 | 18536 ft | 349 kts | 192° |
| 2026-04-28 12:26 | 37.96498 | -8.02070 | 18078 ft | 347 kts | 192° |
| 2026-04-28 12:26 | 37.94145 | -8.02722 | 17570 ft | 345 kts | 192° |
| 2026-04-28 12:27 | 37.91838 | -8.03361 | 17087 ft | 342 kts | 192° |
| 2026-04-28 12:27 | 37.89521 | -8.04002 | 16663 ft | 339 kts | 192° |
| 2026-04-28 12:27 | 37.87230 | -8.04635 | 16200 ft | 336 kts | 193° |
| 2026-04-28 12:27 | 37.84956 | -8.05263 | 15760 ft | 333 kts | 193° |
| 2026-04-28 12:28 | 37.82699 | -8.05887 | 15331 ft | 331 kts | 193° |
| 2026-04-28 12:28 | 37.80460 | -8.06505 | 14902 ft | 329 kts | 193° |
| 2026-04-28 12:28 | 37.78232 | -8.07119 | 14470 ft | 326 kts | 193° |
| 2026-04-28 12:28 | 37.76021 | -8.07729 | 14042 ft | 324 kts | 193° |
| 2026-04-28 12:29 | 37.71639 | -8.08936 | 13140 ft | 320 kts | 193° |
| 2026-04-28 12:29 | 37.69469 | -8.09533 | 12694 ft | 318 kts | 193° |
| 2026-04-28 12:29 | 37.67313 | -8.10126 | 12249 ft | 315 kts | 193° |
| 2026-04-28 12:30 | 37.65173 | -8.10714 | 11833 ft | 313 kts | 193° |
| 2026-04-28 12:30 | 37.63052 | -8.11296 | 11415 ft | 311 kts | 192° |
| 2026-04-28 12:30 | 37.60918 | -8.11696 | 10944 ft | 306 kts | 186° |
| 2026-04-28 12:30 | 37.58855 | -8.11909 | 10626 ft | 294 kts | 185° |
| 2026-04-28 12:31 | 37.56847 | -8.12080 | 10293 ft | 284 kts | 185° |
| 2026-04-28 12:31 | 37.54914 | -8.12246 | 10013 ft | 274 kts | 185° |
| 2026-04-28 12:31 | 37.53054 | -8.12413 | 9753 ft | 265 kts | 185° |
| 2026-04-28 12:31 | 37.51215 | -8.12587 | 9447 ft | 264 kts | 185° |
| 2026-04-28 12:32 | 37.49392 | -8.12764 | 9151 ft | 262 kts | 185° |
| 2026-04-28 12:32 | 37.47576 | -8.12945 | 8854 ft | 261 kts | 185° |
| 2026-04-28 12:32 | 37.45762 | -8.13128 | 8563 ft | 260 kts | 185° |
| 2026-04-28 12:32 | 37.43956 | -8.13313 | 8263 ft | 259 kts | 185° |
| 2026-04-28 12:33 | 37.42160 | -8.13497 | 7976 ft | 259 kts | 185° |
| 2026-04-28 12:33 | 37.40365 | -8.13682 | 7690 ft | 258 kts | 184° |
| 2026-04-28 12:33 | 37.38575 | -8.13867 | 7398 ft | 258 kts | 184° |
| 2026-04-28 12:33 | 37.36785 | -8.14052 | 7095 ft | 258 kts | 184° |
| 2026-04-28 12:34 | 37.35011 | -8.14235 | 6805 ft | 260 kts | 184° |
| 2026-04-28 12:34 | 37.33200 | -8.14423 | 6491 ft | 261 kts | 183° |
| 2026-04-28 12:34 | 37.31384 | -8.14611 | 6169 ft | 262 kts | 184° |
| 2026-04-28 12:34 | 37.29563 | -8.14800 | 5878 ft | 262 kts | 183° |
| 2026-04-28 12:35 | 37.28359 | -8.14924 | 5679 ft | 262 kts | 184° |
| 2026-04-28 12:35 | 37.25922 | -8.15177 | 5291 ft | 261 kts | 184° |
| 2026-04-28 12:35 | 37.24724 | -8.15302 | 5139 ft | 259 kts | 183° |
| 2026-04-28 12:35 | 37.22953 | -8.15485 | 5009 ft | 251 kts | 182° |
| 2026-04-28 12:36 | 37.20725 | -8.15716 | 4901 ft | 232 kts | 183° |
| 2026-04-28 12:36 | 37.19169 | -8.15878 | 4808 ft | 217 kts | 182° |
| 2026-04-28 12:36 | 37.18177 | -8.15982 | 4749 ft | 206 kts | 180° |
| 2026-04-28 12:36 | 37.16811 | -8.16123 | 4612 ft | 193 kts | 182° |
| 2026-04-28 12:37 | 37.15511 | -8.16257 | 4517 ft | 181 kts | 181° |
| 2026-04-28 12:37 | 37.14298 | -8.16382 | 4413 ft | 169 kts | 181° |
| 2026-04-28 12:37 | 37.13121 | -8.16503 | 4292 ft | 172 kts | 179° |
| 2026-04-28 12:37 | 37.11905 | -8.16625 | 4121 ft | 179 kts | 181° |
| 2026-04-28 12:38 | 37.10626 | -8.16755 | 3950 ft | 189 kts | 179° |
| 2026-04-28 12:38 | 37.09292 | -8.16890 | 3724 ft | 194 kts | 181° |
| 2026-04-28 12:38 | 37.07966 | -8.17028 | 3507 ft | 192 kts | 180° |
| 2026-04-28 12:38 | 37.06641 | -8.17167 | 3302 ft | 189 kts | 180° |
| 2026-04-28 12:39 | 37.05354 | -8.17141 | 3000 ft | 182 kts | 158° |
| 2026-04-28 12:39 | 37.04499 | -8.16124 | 2776 ft | 172 kts | 109° |
| 2026-04-28 12:39 | 37.04159 | -8.14682 | 2549 ft | 176 kts | 107° |
| 2026-04-28 12:39 | 37.03837 | -8.13212 | 2331 ft | 176 kts | 103° |
| 2026-04-28 12:40 | 37.03593 | -8.11714 | 2085 ft | 174 kts | 100° |
| 2026-04-28 12:40 | 37.03382 | -8.10253 | 1852 ft | 168 kts | 101° |
| 2026-04-28 12:40 | 37.03176 | -8.08805 | 1643 ft | 168 kts | 100° |
| 2026-04-28 12:40 | 37.02977 | -8.07400 | 1415 ft | 160 kts | 100° |
| 2026-04-28 12:41 | 37.02790 | -8.06084 | 1234 ft | 145 kts | 101° |
| 2026-04-28 12:41 | 37.02619 | -8.04888 | 1041 ft | 137 kts | 98° |
| 2026-04-28 12:41 | 37.02456 | -8.03725 | 885 ft | 135 kts | 99° |
| 2026-04-28 12:41 | 37.02286 | -8.02566 | 618 ft | 133 kts | 99° |
| 2026-04-28 12:42 | 37.02131 | -8.01452 | 457 ft | 129 kts | 100° |
| 2026-04-28 12:42 | 37.01969 | -8.00348 | 310 ft | 129 kts | 97° |
| 2026-04-28 12:42 | 37.01818 | -7.99218 | 144 ft | 136 kts | 99° |
| 2026-04-28 12:42 | 37.01657 | -7.98040 | 30 ft | 134 kts | 101° |
| 2026-04-28 12:43 | 37.01505 | -7.97026 | 20 ft | 93 kts | 100° |
| 2026-04-28 12:43 | 37.01435 | -7.96525 | 21 ft | 30 kts | 96° |
| 2026-04-28 12:43 | 37.01440 | -7.96326 | 22 ft | 22 kts | 80° |
| 2026-04-28 12:43 | 37.01470 | -7.96193 | 20 ft | 13 kts | 70° |
| 2026-04-28 12:44 | 37.01495 | -7.96127 | 20 ft | 5 kts | 45° |
| 2026-04-28 12:44 | 37.01525 | -7.96113 | 19 ft | 5 kts | 4° |
| 2026-04-28 12:44 | 37.01555 | -7.96130 | 20 ft | 6 kts | 313° |
| 2026-04-28 12:44 | 37.01571 | -7.96198 | 20 ft | 9 kts | 281° |
| 2026-04-28 12:45 | 37.01583 | -7.96278 | 19 ft | 9 kts | 280° |
| 2026-04-28 12:45 | 37.01594 | -7.96355 | 19 ft | 9 kts | 280° |
| 2026-04-28 12:45 | 37.01605 | -7.96432 | 19 ft | 9 kts | 280° |
| 2026-04-28 12:45 | 37.01616 | -7.96508 | 20 ft | 10 kts | 280° |
| 2026-04-28 12:46 | 37.01633 | -7.96634 | 19 ft | 18 kts | 280° |
| 2026-04-28 12:46 | 37.01656 | -7.96791 | 19 ft | 18 kts | 280° |
| 2026-04-28 12:46 | 37.01673 | -7.96886 | 21 ft | 10 kts | 304° |
| 2026-04-28 12:46 | 37.01737 | -7.96900 | 21 ft | 10 kts | 11° |
| 2026-04-28 12:47 | 37.01802 | -7.96882 | 21 ft | 9 kts | 23° |
| 2026-04-28 12:47 | 37.01863 | -7.96858 | 21 ft | 9 kts | 8° |
| 2026-04-28 12:47 | 37.01896 | -7.96852 | 19 ft | 3 kts | 9° |
| 2026-04-28 12:47 | 37.01910 | -7.96849 | 19 ft | 0 kts | 9° |